Time;durP1;ratioP1;P1;durP2;ratioP2;P2;SDS_P1;SDS_P2;PMS_P1;PMS_P2;Temp;Humidity;BMP_temperature;BMP_pressure;BME280_temperature;BME280_humidity;BME280_pressure;Samples;Min_cycle;Max_cycle;Signal;HPM_P1;HPM_P2
2022/12/19 00:01:08;;;;;;;40.08;23.88;;;1.00;99.90;;;;;;7368974;19;20022;-46
2022/12/19 00:03:35;;;;;;;37.42;23.08;;;1.00;99.90;;;;;;7371778;19;20035;-47
2022/12/19 00:06:03;;;;;;;36.50;22.92;;;1.00;99.90;;;;;;7371515;19;20473;-49
2022/12/19 00:08:30;;;;;;;37.13;23.45;;;1.10;99.90;;;;;;7378035;19;20516;-46
2022/12/19 00:11:00;;;;;;;37.08;24.83;;;1.10;99.90;;;;;;7373472;19;20019;-46
2022/12/19 00:13:31;;;;;;;36.28;23.45;;;1.10;99.90;;;;;;7373522;19;20438;-51
2022/12/19 00:16:28;;;;;;;37.67;23.05;;;1.20;99.90;;;;;;7370577;19;20569;-50
2022/12/19 00:18:56;;;;;;;32.25;20.92;;;1.20;99.90;;;;;;7368931;19;20481;-46
2022/12/19 00:21:25;;;;;;;36.20;24.38;;;1.20;99.90;;;;;;7373423;19;20884;-47
2022/12/19 00:23:51;;;;;;;36.25;22.48;;;1.20;99.90;;;;;;7371629;19;20616;-46
2022/12/19 00:26:19;;;;;;;39.17;22.35;;;1.20;99.90;;;;;;7373826;19;20613;-50
2022/12/19 00:28:50;;;;;;;36.28;22.55;;;1.20;99.90;;;;;;7367945;19;20400;-48
2022/12/19 00:31:19;;;;;;;38.08;22.65;;;1.20;99.90;;;;;;7373048;19;20146;-48
2022/12/19 00:33:46;;;;;;;35.92;23.15;;;1.20;99.90;;;;;;7374819;19;20014;-49
2022/12/19 00:36:16;;;;;;;35.50;22.25;;;1.20;99.90;;;;;;7376608;19;20022;-46
2022/12/19 00:38:44;;;;;;;36.80;21.40;;;1.20;99.90;;;;;;7370016;19;20018;-46
2022/12/19 00:41:11;;;;;;;35.95;20.88;;;1.20;99.90;;;;;;7371611;19;20019;-47
2022/12/19 00:43:38;;;;;;;36.67;22.35;;;1.30;99.90;;;;;;7370410;19;20553;-47
2022/12/19 00:46:08;;;;;;;35.30;22.98;;;1.30;99.90;;;;;;7375203;19;20018;-49
2022/12/19 00:48:35;;;;;;;35.60;22.73;;;1.30;99.90;;;;;;7372692;19;20018;-47
2022/12/19 00:51:14;;;;;;;38.38;23.40;;;1.30;99.90;;;;;;7372674;19;20022;-49
2022/12/19 00:53:45;;;;;;;38.17;24.33;;;1.30;99.90;;;;;;7373127;19;20022;-46
2022/12/19 00:56:14;;;;;;;35.20;23.40;;;1.30;99.90;;;;;;7370505;19;20014;-47
2022/12/19 00:58:45;;;;;;;36.17;22.40;;;1.30;99.90;;;;;;7371435;19;20050;-45
2022/12/19 01:01:18;;;;;;;35.78;24.02;;;1.40;99.90;;;;;;7369141;19;20018;-49
2022/12/19 01:03:44;;;;;;;38.45;24.02;;;1.40;99.90;;;;;;7361101;19;20472;-46
2022/12/19 01:06:13;;;;;;;36.58;24.05;;;1.40;99.90;;;;;;7360769;19;20604;-42
2022/12/19 01:08:40;;;;;;;38.90;24.90;;;1.40;99.90;;;;;;7369569;19;20057;-47
2022/12/19 01:11:07;;;;;;;30.80;19.60;;;1.50;99.90;;;;;;7368990;19;20019;-45
2022/12/19 01:13:36;;;;;;;33.25;22.13;;;1.50;99.90;;;;;;7373164;19;20197;-45
2022/12/19 01:16:04;;;;;;;34.97;22.48;;;1.50;99.90;;;;;;7371043;19;20018;-46
2022/12/19 01:18:31;;;;;;;39.75;23.70;;;1.50;99.90;;;;;;7373446;19;20141;-45
2022/12/19 01:21:04;;;;;;;32.63;21.77;;;1.50;99.90;;;;;;7376635;19;20493;-47
2022/12/19 01:23:35;;;;;;;35.55;23.08;;;1.50;99.90;;;;;;7373682;19;20010;-47
2022/12/19 01:26:02;;;;;;;36.38;22.55;;;1.60;99.90;;;;;;7371642;19;20019;-50
2022/12/19 01:28:29;;;;;;;32.58;23.02;;;1.60;99.90;;;;;;7370562;19;20014;-51
2022/12/19 01:30:55;;;;;;;34.70;22.40;;;1.60;99.90;;;;;;7371275;19;20024;-46
2022/12/19 01:33:22;;;;;;;36.35;21.95;;;1.60;99.90;;;;;;7372071;19;20018;-46
2022/12/19 01:35:49;;;;;;;39.67;24.70;;;1.60;99.90;;;;;;7368294;19;20031;-42
2022/12/19 01:38:18;;;;;;;36.40;23.75;;;1.60;99.90;;;;;;7370685;19;20014;-43
2022/12/19 01:40:56;;;;;;;35.60;23.27;;;1.60;99.90;;;;;;7372693;19;20023;-42
2022/12/19 01:43:32;;;;;;;36.05;24.75;;;1.70;99.90;;;;;;7372751;19;20035;-43
2022/12/19 01:46:05;;;;;;;37.58;22.70;;;1.60;99.90;;;;;;7369947;19;20018;-44
2022/12/19 01:48:37;;;;;;;35.72;24.70;;;1.60;99.90;;;;;;7370656;19;20018;-43
2022/12/19 01:51:12;;;;;;;35.28;22.30;;;1.70;99.90;;;;;;7371451;19;20109;-42
2022/12/19 01:53:45;;;;;;;36.67;23.60;;;1.70;99.90;;;;;;7372279;19;20421;-44
2022/12/19 01:56:11;;;;;;;36.95;23.67;;;1.70;99.90;;;;;;7369461;19;20465;-44
2022/12/19 01:58:45;;;;;;;36.75;22.92;;;1.70;99.90;;;;;;7368786;19;20015;-42
2022/12/19 02:01:14;;;;;;;36.50;24.02;;;1.70;99.90;;;;;;7368043;19;20018;-42
2022/12/19 02:03:43;;;;;;;36.78;22.67;;;1.70;99.90;;;;;;7361957;19;20376;-42
2022/12/19 02:06:13;;;;;;;38.03;23.23;;;1.70;99.90;;;;;;7369658;19;20026;-41
2022/12/19 02:08:45;;;;;;;41.50;23.45;;;1.80;99.90;;;;;;7373556;19;20022;-46
2022/12/19 02:11:11;;;;;;;40.28;25.85;;;1.80;99.90;;;;;;7369761;19;20498;-44
2022/12/19 02:13:38;;;;;;;42.17;24.95;;;1.80;99.90;;;;;;7373523;19;20021;-44
2022/12/19 02:16:07;;;;;;;37.40;24.13;;;1.70;99.90;;;;;;7367931;19;20018;-43
2022/12/19 02:18:56;;;;;;;40.28;24.85;;;1.70;99.90;;;;;;7370469;19;20453;-42
2022/12/19 02:21:28;;;;;;;44.47;26.05;;;1.70;99.90;;;;;;7371602;19;20017;-45
2022/12/19 02:24:24;;;;;;;37.38;22.30;;;1.70;99.90;;;;;;7368260;19;20500;-43
2022/12/19 02:27:32;;;;;;;44.42;25.55;;;1.70;99.90;;;;;;7367508;19;20022;-43
2022/12/19 02:30:09;;;;;;;41.35;24.85;;;1.70;99.90;;;;;;7367487;19;20018;-42
2022/12/19 02:33:01;;;;;;;43.75;26.08;;;1.70;99.90;;;;;;7364326;19;20018;-44
2022/12/19 02:35:36;;;;;;;41.80;24.98;;;1.70;99.90;;;;;;7374136;19;20011;-44
2022/12/19 02:38:17;;;;;;;47.60;26.05;;;1.70;99.90;;;;;;7364319;19;20014;-42
2022/12/19 02:40:50;;;;;;;46.13;26.42;;;1.70;99.90;;;;;;7371427;19;20015;-44
2022/12/19 02:43:17;;;;;;;49.88;26.40;;;1.70;99.90;;;;;;7369143;19;20019;-43
2022/12/19 02:45:45;;;;;;;49.70;28.27;;;1.70;99.90;;;;;;7367615;19;20482;-43
2022/12/19 02:48:12;;;;;;;53.28;27.08;;;1.70;99.90;;;;;;7373085;19;20018;-44
2022/12/19 02:50:42;;;;;;;57.58;30.60;;;1.70;99.90;;;;;;7371186;19;20022;-46
2022/12/19 02:53:13;;;;;;;56.30;31.30;;;1.70;99.90;;;;;;7367845;19;20405;-45
2022/12/19 02:56:17;;;;;;;56.13;30.98;;;1.70;99.90;;;;;;7370694;19;20022;-43
2022/12/19 02:59:17;;;;;;;60.40;29.00;;;1.70;99.90;;;;;;7366742;19;20044;-45
2022/12/19 03:02:06;;;;;;;58.55;31.48;;;1.70;99.90;;;;;;7372251;19;20025;-43
2022/12/19 03:04:35;;;;;;;54.08;28.52;;;1.80;99.90;;;;;;7373553;19;20057;-42
2022/12/19 03:07:34;;;;;;;57.55;30.50;;;1.80;99.90;;;;;;7377709;19;20040;-42
2022/12/19 03:10:19;;;;;;;57.72;29.02;;;1.90;99.90;;;;;;7379535;19;20514;-42
2022/12/19 03:12:55;;;;;;;52.17;28.90;;;1.90;99.90;;;;;;7376003;19;20023;-44
2022/12/19 03:15:24;;;;;;;57.45;31.17;;;2.00;99.90;;;;;;7378988;19;20518;-42
2022/12/19 03:17:51;;;;;;;51.95;28.60;;;2.00;99.90;;;;;;7374412;19;20142;-43
2022/12/19 03:20:50;;;;;;;56.42;31.50;;;2.00;99.90;;;;;;7377141;19;20465;-42
2022/12/19 03:23:17;;;;;;;60.38;31.92;;;2.00;99.90;;;;;;7373347;19;20489;-42
2022/12/19 03:25:49;;;;;;;57.03;31.35;;;2.10;99.90;;;;;;7374928;19;20018;-42
2022/12/19 03:28:30;;;;;;;56.80;31.40;;;2.10;99.90;;;;;;7379582;19;20025;-46
2022/12/19 03:30:58;;;;;;;68.93;35.15;;;2.20;99.90;;;;;;7374783;19;20387;-42
2022/12/19 03:33:30;;;;;;;65.70;32.47;;;2.20;99.90;;;;;;7378424;19;20110;-42
2022/12/19 03:36:00;;;;;;;67.00;34.25;;;2.40;99.90;;;;;;7375830;19;20474;-44
2022/12/19 03:38:27;;;;;;;56.17;30.20;;;2.40;99.90;;;;;;7375609;19;20014;-43
2022/12/19 03:40:55;;;;;;;62.60;33.90;;;2.40;99.90;;;;;;7378586;19;20019;-43
2022/12/19 03:43:24;;;;;;;59.45;35.17;;;2.40;99.90;;;;;;7373195;19;20642;-43
2022/12/19 03:45:59;;;;;;;64.38;34.72;;;2.40;99.90;;;;;;7378415;19;20019;-43
2022/12/19 03:48:45;;;;;;;60.10;33.28;;;2.40;99.90;;;;;;7374732;19;20011;-43
2022/12/19 03:51:30;;;;;;;60.85;32.20;;;2.40;99.90;;;;;;7374286;19;20035;-42
2022/12/19 03:54:15;;;;;;;62.33;33.92;;;2.40;99.90;;;;;;7373911;19;20041;-42
2022/12/19 03:57:13;;;;;;;60.92;34.20;;;2.50;99.90;;;;;;7376434;19;20432;-44
2022/12/19 03:59:48;;;;;;;57.92;32.28;;;2.60;99.90;;;;;;7373636;19;20409;-44
2022/12/19 04:02:16;;;;;;;63.10;33.50;;;2.50;99.90;;;;;;7376540;19;20126;-43
2022/12/19 04:04:49;;;;;;;62.15;36.10;;;2.50;99.90;;;;;;7371858;19;20026;-43
2022/12/19 04:07:17;;;;;;;78.07;37.88;;;2.60;99.90;;;;;;7375361;19;20373;-44
2022/12/19 04:09:45;;;;;;;76.97;38.20;;;2.60;99.90;;;;;;7377391;19;20026;-49
2022/12/19 04:12:18;;;;;;;73.40;39.30;;;2.70;99.90;;;;;;7375739;19;20014;-49
2022/12/19 04:14:51;;;;;;;68.20;34.53;;;2.70;99.90;;;;;;7374187;19;20479;-42
2022/12/19 04:17:42;;;;;;;70.97;37.72;;;2.70;99.90;;;;;;7374958;19;20062;-44
2022/12/19 04:20:12;;;;;;;74.20;39.75;;;2.70;99.90;;;;;;7375459;19;20085;-49
2022/12/19 04:23:03;;;;;;;69.20;36.55;;;2.70;99.90;;;;;;7374733;19;20094;-48
2022/12/19 04:25:34;;;;;;;67.72;36.13;;;2.70;99.90;;;;;;7371799;19;20019;-45
2022/12/19 04:28:11;;;;;;;67.43;36.97;;;2.70;99.90;;;;;;7371451;19;20736;-41
2022/12/19 04:30:40;;;;;;;57.28;33.25;;;2.80;99.90;;;;;;7374773;19;20393;-47
2022/12/19 04:33:08;;;;;;;61.42;34.97;;;2.70;99.90;;;;;;7374766;19;20026;-47
2022/12/19 04:35:35;;;;;;;66.78;37.65;;;2.70;99.90;;;;;;7373921;19;20366;-48
2022/12/19 04:38:01;;;;;;;66.15;35.60;;;2.80;99.90;;;;;;7372969;19;20411;-48
2022/12/19 04:40:28;;;;;;;58.95;35.28;;;2.80;99.90;;;;;;7374534;19;20025;-45
2022/12/19 04:42:54;;;;;;;70.65;36.50;;;2.80;99.90;;;;;;7376463;19;20022;-47
2022/12/19 04:45:21;;;;;;;66.38;36.60;;;2.80;99.90;;;;;;7377581;19;20022;-42
2022/12/19 04:47:47;;;;;;;62.88;32.03;;;2.90;99.90;;;;;;7372327;19;20469;-41
2022/12/19 04:50:16;;;;;;;63.92;33.08;;;2.80;99.90;;;;;;7377458;19;20018;-43
2022/12/19 04:52:42;;;;;;;64.00;34.22;;;2.90;99.90;;;;;;7376181;19;20047;-42
2022/12/19 04:55:09;;;;;;;55.55;33.65;;;3.00;99.90;;;;;;7372673;19;20022;-41
2022/12/19 04:57:35;;;;;;;58.20;33.28;;;3.00;99.90;;;;;;7375134;19;20015;-40
2022/12/19 05:00:03;;;;;;;59.92;32.85;;;3.00;99.90;;;;;;7372136;19;20019;-40
2022/12/19 05:02:30;;;;;;;62.63;34.65;;;3.00;99.90;;;;;;7376147;19;20019;-41
2022/12/19 05:04:57;;;;;;;64.78;33.70;;;3.00;99.90;;;;;;7372011;19;20435;-45
2022/12/19 05:07:23;;;;;;;67.60;36.58;;;3.00;99.90;;;;;;7370629;19;20451;-47
2022/12/19 05:09:49;;;;;;;58.58;31.50;;;3.10;99.90;;;;;;7374559;19;20010;-41
2022/12/19 05:12:18;;;;;;;59.30;34.00;;;3.10;99.90;;;;;;7374702;19;20014;-40
2022/12/19 05:14:44;;;;;;;60.05;31.02;;;3.10;99.90;;;;;;7372707;19;20014;-41
2022/12/19 05:17:10;;;;;;;60.17;34.85;;;3.20;99.90;;;;;;7374465;19;20050;-40
2022/12/19 05:19:36;;;;;;;59.67;32.85;;;3.30;99.90;;;;;;7373215;19;20081;-40
2022/12/19 05:22:03;;;;;;;66.85;34.67;;;3.20;99.90;;;;;;7373455;19;20022;-41
2022/12/19 05:24:29;;;;;;;70.40;37.40;;;3.20;99.90;;;;;;7368906;19;20022;-45
2022/12/19 05:26:55;;;;;;;72.20;35.58;;;3.30;99.90;;;;;;7371499;19;20018;-46
2022/12/19 05:29:22;;;;;;;68.80;37.45;;;3.30;99.90;;;;;;7373584;19;20019;-46
2022/12/19 05:31:50;;;;;;;74.97;36.65;;;3.30;99.90;;;;;;7373986;19;20018;-49
2022/12/19 05:34:16;;;;;;;73.38;36.15;;;3.40;99.90;;;;;;7371726;19;20022;-47
2022/12/19 05:36:45;;;;;;;70.13;36.15;;;3.40;99.90;;;;;;7372346;19;20021;-44
2022/12/19 05:39:12;;;;;;;63.42;33.85;;;3.30;99.90;;;;;;7368536;19;20594;-45
2022/12/19 05:41:38;;;;;;;65.82;33.75;;;3.40;99.90;;;;;;7372773;19;20026;-47
2022/12/19 05:44:05;;;;;;;81.50;36.15;;;3.40;99.90;;;;;;7365863;19;20019;-44
2022/12/19 05:46:36;;;;;;;;;;;3.40;99.90;;;;;;7374394;19;20351;-42
2022/12/19 05:49:03;;;;;;;66.93;35.17;;;3.50;99.90;;;;;;7370319;19;19936;-44
2022/12/19 05:51:29;;;;;;;62.50;33.58;;;3.50;99.90;;;;;;7373472;19;20337;-44
2022/12/19 05:53:57;;;;;;;63.28;34.22;;;3.50;99.90;;;;;;7366411;19;20014;-45
2022/12/19 05:56:23;;;;;;;62.47;31.38;;;3.60;99.90;;;;;;7370510;19;20015;-45
2022/12/19 05:58:50;;;;;;;61.50;30.55;;;3.60;99.90;;;;;;7374569;19;20014;-44
2022/12/19 06:01:22;;;;;;;60.67;33.72;;;3.60;99.90;;;;;;7370706;19;20022;-43
2022/12/19 06:03:49;;;;;;;57.17;31.10;;;3.70;99.90;;;;;;7368464;19;20019;-43
2022/12/19 06:06:18;;;;;;;57.55;30.00;;;3.70;99.90;;;;;;7367273;19;21205;-43
2022/12/19 06:08:58;;;;;;;50.00;29.95;;;3.70;99.90;;;;;;7365713;19;20019;-44
2022/12/19 06:11:25;;;;;;;56.80;31.20;;;3.80;99.90;;;;;;7364393;19;20022;-44
2022/12/19 06:13:52;;;;;;;60.08;29.67;;;3.80;99.90;;;;;;7370947;19;20394;-46
2022/12/19 06:16:21;;;;;;;66.80;35.75;;;3.80;99.90;;;;;;7368629;19;20015;-47
2022/12/19 06:18:47;;;;;;;50.00;28.33;;;3.90;99.90;;;;;;7371911;19;20022;-45
2022/12/19 06:21:19;;;;;;;49.72;29.83;;;3.90;99.90;;;;;;7352447;19;20053;-45
2022/12/19 06:23:46;;;;;;;48.30;26.83;;;3.90;99.90;;;;;;7355965;19;20006;-46
2022/12/19 06:26:21;;;;;;;52.95;28.73;;;3.90;99.90;;;;;;7368704;19;20518;-42
2022/12/19 06:28:54;;;;;;;53.15;28.10;;;4.00;99.90;;;;;;7373695;19;20019;-46
2022/12/19 06:31:22;;;;;;;52.22;29.73;;;4.00;99.90;;;;;;7368789;19;20019;-48
2022/12/19 06:33:50;;;;;;;56.55;31.00;;;4.00;99.90;;;;;;7362191;19;20021;-46
2022/12/19 06:36:20;;;;;;;51.50;26.20;;;4.10;99.90;;;;;;7362526;19;20487;-43
2022/12/19 06:38:48;;;;;;;55.35;29.08;;;4.00;99.90;;;;;;7361734;19;20015;-45
2022/12/19 06:44:02;;;;;;;52.08;26.40;;;4.10;99.90;;;;;;7369185;19;20015;-42
2022/12/19 06:46:29;;;;;;;49.25;27.75;;;4.10;99.90;;;;;;7371250;19;20615;-42
2022/12/19 06:49:09;;;;;;;49.47;27.50;;;4.20;99.90;;;;;;7370282;19;20014;-45
2022/12/19 06:51:36;;;;;;;41.47;24.77;;;4.20;99.90;;;;;;7367557;19;20022;-44
2022/12/19 06:54:03;;;;;;;48.80;26.48;;;4.20;99.90;;;;;;7368016;19;20395;-43
2022/12/19 06:56:35;;;;;;;49.72;25.55;;;4.30;99.90;;;;;;7366843;19;20022;-42
2022/12/19 06:59:01;;;;;;;39.83;23.27;;;4.30;99.90;;;;;;7366893;19;20109;-44
2022/12/19 07:01:51;;;;;;;44.60;24.80;;;4.20;99.90;;;;;;7371736;19;20018;-44
2022/12/19 07:04:31;;;;;;;42.95;24.27;;;4.30;99.90;;;;;;7364345;19;20018;-42
2022/12/19 07:06:58;;;;;;;39.08;22.83;;;4.30;99.90;;;;;;7358918;19;20022;-44
2022/12/19 07:09:27;;;;;;;45.30;25.23;;;4.40;99.90;;;;;;7352799;19;20019;-43
2022/12/19 07:11:53;;;;;;;42.08;23.20;;;4.30;99.90;;;;;;7356070;19;20556;-43
2022/12/19 07:14:20;;;;;;;48.75;25.48;;;4.40;99.90;;;;;;7355630;19;20018;-43
2022/12/19 07:16:50;;;;;;;43.60;24.67;;;4.40;99.90;;;;;;7343768;19;20029;-43
2022/12/19 07:19:16;;;;;;;43.72;24.10;;;4.40;99.90;;;;;;7348893;19;20125;-43
2022/12/19 07:21:43;;;;;;;33.90;19.38;;;4.50;99.90;;;;;;7351223;19;20029;-42
2022/12/19 07:24:11;;;;;;;45.85;26.70;;;4.50;99.90;;;;;;7354863;19;20485;-44
2022/12/19 07:26:37;;;;;;;45.78;23.52;;;4.50;99.90;;;;;;7347688;19;20026;-43
2022/12/19 07:29:10;;;;;;;43.78;24.30;;;4.50;99.90;;;;;;7357869;19;20362;-44
2022/12/19 07:31:37;;;;;;;47.67;23.83;;;4.50;99.90;;;;;;7347193;19;20057;-41
2022/12/19 07:34:03;;;;;;;42.30;24.17;;;4.50;99.90;;;;;;7351144;19;20015;-42
2022/12/19 07:36:29;;;;;;;42.05;24.58;;;4.50;99.90;;;;;;7348448;19;20019;-42
2022/12/19 07:38:56;;;;;;;42.30;25.13;;;4.60;99.90;;;;;;7347598;19;20018;-42
2022/12/19 07:41:22;;;;;;;43.80;23.20;;;4.60;99.90;;;;;;7349748;19;20018;-43
2022/12/19 07:43:48;;;;;;;42.10;23.17;;;4.60;99.90;;;;;;7347640;19;20421;-42
2022/12/19 07:46:15;;;;;;;44.67;23.45;;;4.70;99.90;;;;;;7349745;19;20030;-44
2022/12/19 07:48:41;;;;;;;45.50;24.20;;;4.70;99.90;;;;;;7359971;19;20668;-43
2022/12/19 07:51:08;;;;;;;45.28;22.58;;;4.70;99.90;;;;;;7360167;19;20055;-43
2022/12/19 07:53:34;;;;;;;37.80;21.67;;;4.70;99.90;;;;;;7350531;19;20522;-44
2022/12/19 07:56:00;;;;;;;44.63;23.70;;;4.80;99.90;;;;;;7356029;19;20548;-43
2022/12/19 07:58:29;;;;;;;41.67;23.42;;;4.80;99.90;;;;;;7359626;19;20018;-43
2022/12/19 08:00:56;;;;;;;40.55;21.73;;;4.80;99.90;;;;;;7358838;19;20512;-41
2022/12/19 08:03:43;;;;;;;35.53;20.77;;;4.80;99.90;;;;;;7354217;19;20449;-43
2022/12/19 08:06:10;;;;;;;39.25;21.95;;;4.90;99.90;;;;;;7354956;19;20048;-43
2022/12/19 08:08:36;;;;;;;42.28;22.58;;;5.00;99.90;;;;;;7359905;19;20057;-43
2022/12/19 08:11:12;;;;;;;41.60;23.88;;;5.00;99.90;;;;;;7357647;19;20500;-44
2022/12/19 08:13:38;;;;;;;42.22;23.90;;;5.00;99.90;;;;;;7357533;19;20022;-44
2022/12/19 08:16:07;;;;;;;36.60;22.25;;;5.10;99.90;;;;;;7354695;19;20018;-44
2022/12/19 08:18:33;;;;;;;42.80;23.23;;;5.10;99.90;;;;;;7356409;19;20121;-48
2022/12/19 08:20:59;;;;;;;38.00;22.42;;;5.10;99.90;;;;;;7355399;19;20019;-44
2022/12/19 08:23:26;;;;;;;40.47;23.50;;;5.20;99.90;;;;;;7354369;19;20482;-43
2022/12/19 08:26:14;;;;;;;41.58;23.08;;;5.20;99.90;;;;;;7355255;19;20045;-45
2022/12/19 08:28:42;;;;;;;42.83;22.40;;;5.30;99.90;;;;;;7354953;19;20022;-43
2022/12/19 08:31:15;;;;;;;35.97;21.42;;;5.30;99.90;;;;;;7355432;19;20023;-44
2022/12/19 08:33:42;;;;;;;41.88;21.63;;;5.40;99.90;;;;;;7358500;19;20577;-45
2022/12/19 08:36:14;;;;;;;42.25;23.70;;;5.30;99.90;;;;;;7355087;19;20041;-44
2022/12/19 08:38:40;;;;;;;;;;;5.40;99.90;;;;;;7357021;19;20568;-42
2022/12/19 08:41:07;;;;;;;36.13;20.95;;;5.40;99.90;;;;;;7359415;19;20450;-42
2022/12/19 08:43:35;;;;;;;36.38;21.95;;;5.40;99.90;;;;;;7352429;19;20448;-42
2022/12/19 08:46:01;;;;;;;38.25;22.75;;;5.50;99.90;;;;;;7357194;19;20118;-42
2022/12/19 08:48:27;;;;;;;36.95;21.77;;;5.50;99.90;;;;;;7357168;19;20014;-44
2022/12/19 08:50:56;;;;;;;39.67;23.23;;;5.50;99.90;;;;;;7359471;19;20027;-43
2022/12/19 08:53:24;;;;;;;44.28;23.65;;;5.60;99.90;;;;;;7352109;19;20026;-43
2022/12/19 08:55:59;;;;;;;43.58;25.50;;;5.70;99.90;;;;;;7362200;19;20387;-42
2022/12/19 08:58:26;;;;;;;43.28;24.13;;;5.60;99.90;;;;;;7371985;19;20364;-45
2022/12/19 09:00:54;;;;;;;39.80;25.60;;;5.70;99.90;;;;;;7372153;19;21142;-44
2022/12/19 09:03:21;;;;;;;44.53;24.80;;;5.70;99.90;;;;;;7370740;19;20108;-43
2022/12/19 09:05:59;;;;;;;39.80;24.30;;;5.70;99.90;;;;;;7372184;19;20022;-43
2022/12/19 09:08:29;;;;;;;39.58;24.85;;;5.70;99.90;;;;;;7374372;19;20035;-44
2022/12/19 09:11:02;;;;;;;41.03;23.83;;;5.80;99.90;;;;;;7364510;19;20022;-45
2022/12/19 09:13:29;;;;;;;44.03;26.58;;;5.80;99.90;;;;;;7371842;19;20028;-44
2022/12/19 09:16:03;;;;;;;119.32;50.13;;;5.90;99.90;;;;;;7369405;19;20474;-42
2022/12/19 09:18:30;;;;;;;83.20;38.97;;;5.90;99.90;;;;;;7375733;19;20506;-43
2022/12/19 09:20:58;;;;;;;52.60;26.92;;;6.00;99.90;;;;;;7373274;19;20022;-43
2022/12/19 09:23:26;;;;;;;81.03;40.85;;;6.00;99.90;;;;;;7368950;19;20014;-44
2022/12/19 09:26:01;;;;;;;50.42;30.13;;;6.10;99.90;;;;;;7371953;19;20037;-43
2022/12/19 09:28:33;;;;;;;51.97;29.73;;;6.00;99.90;;;;;;7372057;19;20019;-42
2022/12/19 09:31:03;;;;;;;50.47;29.75;;;6.00;99.90;;;;;;7367867;19;20481;-43
2022/12/19 09:33:35;;;;;;;49.05;28.95;;;6.10;99.90;;;;;;7374952;19;20022;-45
2022/12/19 09:36:02;;;;;;;47.20;27.40;;;6.10;99.90;;;;;;7371196;19;20015;-44
2022/12/19 09:38:33;;;;;;;48.97;28.02;;;6.00;99.90;;;;;;7372920;19;20026;-43
2022/12/19 09:41:19;;;;;;;41.80;28.25;;;6.10;99.90;;;;;;7364022;19;20656;-44
2022/12/19 09:43:56;;;;;;;45.22;27.23;;;6.20;99.90;;;;;;7351474;19;20683;-43
2022/12/19 09:46:40;;;;;;;46.35;27.70;;;6.20;99.90;;;;;;7359208;19;20023;-44
2022/12/19 09:49:24;;;;;;;42.15;27.42;;;6.30;99.90;;;;;;7368254;19;20018;-44
2022/12/19 09:52:03;;;;;;;44.33;27.05;;;6.30;99.90;;;;;;7375261;19;20481;-45
2022/12/19 09:54:41;;;;;;;43.10;26.75;;;6.40;99.90;;;;;;7368792;19;20025;-45
2022/12/19 09:57:51;;;;;;;44.00;25.88;;;6.40;99.90;;;;;;7372858;19;20014;-43
2022/12/19 10:00:19;;;;;;;44.72;25.05;;;6.40;99.90;;;;;;7370428;19;20343;-44
2022/12/19 10:02:58;;;;;;;42.05;25.60;;;6.40;99.90;;;;;;7371682;19;20044;-44
2022/12/19 10:05:32;;;;;;;41.08;25.10;;;6.50;99.90;;;;;;7370866;19;20051;-45
2022/12/19 10:08:02;;;;;;;41.03;24.88;;;6.50;99.90;;;;;;7374807;19;20015;-45
2022/12/19 10:10:47;;;;;;;38.80;24.13;;;6.40;99.90;;;;;;7368205;19;20018;-45
2022/12/19 10:13:32;;;;;;;37.67;23.27;;;6.50;99.90;;;;;;7372050;19;20028;-46
2022/12/19 10:16:08;;;;;;;37.22;24.77;;;6.50;99.90;;;;;;7372297;19;20018;-45
2022/12/19 10:18:54;;;;;;;34.03;23.38;;;6.50;99.90;;;;;;7368680;19;20576;-46
2022/12/19 10:21:27;;;;;;;37.92;23.38;;;6.60;99.90;;;;;;7372189;19;20078;-44
2022/12/19 10:23:57;;;;;;;37.30;24.30;;;6.60;99.90;;;;;;7371213;19;20015;-45
2022/12/19 10:26:33;;;;;;;39.03;24.95;;;6.70;99.90;;;;;;7366955;19;20022;-45
2022/12/19 10:29:13;;;;;;;34.10;21.40;;;6.60;99.90;;;;;;7367235;19;20022;-44
2022/12/19 10:32:07;;;;;;;35.10;23.33;;;6.60;99.90;;;;;;7369405;19;20553;-47
2022/12/19 10:34:39;;;;;;;31.40;21.75;;;6.70;99.90;;;;;;7375486;19;20447;-45
2022/12/19 10:37:27;;;;;;;35.22;21.20;;;6.80;99.90;;;;;;7366361;19;20038;-44
2022/12/19 10:40:06;;;;;;;31.77;21.13;;;6.80;99.90;;;;;;7375789;19;20045;-49
2022/12/19 10:42:58;;;;;;;31.52;20.58;;;6.80;99.90;;;;;;7371349;19;20374;-47
2022/12/19 10:45:35;;;;;;;31.75;21.48;;;6.80;99.90;;;;;;7365526;19;20416;-45
2022/12/19 10:48:04;;;;;;;31.10;20.75;;;6.80;99.90;;;;;;7368906;19;20031;-46
2022/12/19 10:50:30;;;;;;;31.60;20.70;;;6.90;99.90;;;;;;7368936;19;20028;-47
2022/12/19 10:53:03;;;;;;;30.92;20.90;;;7.00;99.90;;;;;;7367374;19;20038;-44
2022/12/19 10:55:41;;;;;;;30.48;20.02;;;7.00;99.90;;;;;;7363343;19;20098;-44
2022/12/19 10:58:19;;;;;;;28.20;19.35;;;7.00;99.90;;;;;;7368281;19;20023;-46
2022/12/19 11:01:08;;;;;;;28.70;20.67;;;7.00;99.90;;;;;;7369794;19;20015;-44
2022/12/19 11:03:41;;;;;;;29.48;20.60;;;7.00;99.90;;;;;;7369317;19;20176;-45
2022/12/19 11:06:34;;;;;;;31.25;22.35;;;7.00;99.90;;;;;;7366906;19;20014;-44
2022/12/19 11:09:15;;;;;;;;;;;7.00;99.90;;;;;;7368112;19;20010;-46
2022/12/19 11:11:41;;;;;;;25.48;19.00;;;7.10;99.90;;;;;;7367140;19;19926;-46
2022/12/19 11:14:21;;;;;;;30.40;18.98;;;7.10;99.90;;;;;;7369298;19;20054;-44
2022/12/19 11:16:48;;;;;;;27.45;20.88;;;7.10;99.90;;;;;;7372749;19;20039;-46
2022/12/19 11:19:21;;;;;;;30.10;20.33;;;7.20;99.90;;;;;;7368096;19;20041;-45
2022/12/19 11:21:47;;;;;;;26.35;18.42;;;7.10;99.90;;;;;;7370950;19;20055;-45
2022/12/19 11:24:47;;;;;;;22.92;17.17;;;7.10;99.90;;;;;;7368268;19;20078;-46
2022/12/19 11:27:39;;;;;;;23.80;17.95;;;7.20;99.90;;;;;;7377480;19;20018;-44
2022/12/19 11:30:14;;;;;;;26.00;18.70;;;7.30;99.90;;;;;;7374623;19;20023;-44
2022/12/19 11:32:43;;;;;;;28.67;18.90;;;7.30;99.90;;;;;;7379880;19;20597;-45
2022/12/19 11:35:24;;;;;;;24.88;18.23;;;7.30;99.90;;;;;;7378132;19;20018;-44
2022/12/19 11:37:55;;;;;;;22.50;17.33;;;7.30;99.90;;;;;;7376398;19;20021;-44
2022/12/19 11:40:31;;;;;;;27.20;19.38;;;7.30;99.90;;;;;;7374428;19;20029;-43
2022/12/19 11:43:24;;;;;;;24.67;17.27;;;7.40;99.90;;;;;;7376531;19;20018;-45
2022/12/19 11:45:59;;;;;;;26.08;19.60;;;7.40;99.90;;;;;;7375767;19;20018;-43
2022/12/19 11:48:38;;;;;;;23.50;17.58;;;7.40;99.90;;;;;;7375303;19;20010;-45
2022/12/19 11:51:08;;;;;;;24.55;18.05;;;7.40;99.90;;;;;;7378881;19;20015;-45
2022/12/19 11:54:21;;;;;;;25.30;17.95;;;7.40;99.90;;;;;;7376046;19;20049;-45
2022/12/19 11:56:50;;;;;;;24.00;17.50;;;7.40;99.90;;;;;;7377128;19;20022;-47
2022/12/19 11:59:20;;;;;;;22.23;16.50;;;7.40;99.90;;;;;;7373615;19;20639;-48
2022/12/19 12:02:33;;;;;;;25.45;18.63;;;7.50;99.90;;;;;;7378338;19;20511;-47
2022/12/19 12:05:11;;;;;;;21.67;16.58;;;7.60;99.90;;;;;;7376961;19;20492;-46
2022/12/19 12:07:41;;;;;;;19.80;16.30;;;7.50;99.90;;;;;;7376160;19;20055;-44
2022/12/19 12:10:19;;;;;;;22.55;17.23;;;7.50;99.90;;;;;;7374828;19;20061;-44
2022/12/19 12:13:13;;;;;;;22.50;16.50;;;7.50;99.90;;;;;;7379034;19;20410;-46
2022/12/19 12:16:12;;;;;;;19.70;15.98;;;7.50;99.90;;;;;;7377204;19;20137;-46
2022/12/19 12:19:09;;;;;;;20.73;15.23;;;7.50;99.90;;;;;;7373252;19;20583;-43
2022/12/19 12:22:01;;;;;;;23.00;16.25;;;7.50;99.90;;;;;;7371734;19;20062;-47
2022/12/19 12:25:18;;;;;;;21.42;16.02;;;7.50;99.90;;;;;;7375671;19;20405;-43
2022/12/19 12:28:11;;;;;;;23.55;15.85;;;7.60;99.90;;;;;;7373025;19;20022;-48
2022/12/19 12:31:30;;;;;;;20.00;16.30;;;7.60;99.90;;;;;;7373020;19;20025;-47
2022/12/19 12:34:04;;;;;;;20.48;15.55;;;7.60;99.90;;;;;;7366643;19;20023;-47
2022/12/19 12:37:02;;;;;;;20.35;16.08;;;7.60;99.90;;;;;;7374909;19;20451;-47
2022/12/19 12:39:56;;;;;;;19.85;15.68;;;7.70;99.90;;;;;;7371480;19;20561;-44
2022/12/19 12:42:34;;;;;;;18.95;15.63;;;7.70;99.90;;;;;;7372987;19;20658;-45
2022/12/19 12:45:28;;;;;;;22.63;16.08;;;7.70;99.90;;;;;;7375126;19;20058;-44
2022/12/19 12:47:54;;;;;;;19.83;16.13;;;7.70;99.90;;;;;;7374749;19;20026;-43
2022/12/19 12:50:23;;;;;;;19.38;14.70;;;7.70;99.90;;;;;;7373422;19;20094;-44
2022/12/19 12:52:55;;;;;;;19.05;15.07;;;7.70;99.90;;;;;;7374661;19;20019;-47
2022/12/19 12:55:31;;;;;;;19.55;15.95;;;7.80;99.90;;;;;;7373129;19;20018;-45
2022/12/19 12:57:58;;;;;;;20.77;16.65;;;7.80;99.90;;;;;;7373752;19;20381;-47
2022/12/19 13:00:32;;;;;;;20.92;16.92;;;7.80;99.90;;;;;;7370778;19;20090;-44
2022/12/19 13:03:04;;;;;;;21.38;17.45;;;7.80;99.90;;;;;;7370733;19;20019;-45
2022/12/19 13:05:45;;;;;;;21.65;16.40;;;7.80;99.90;;;;;;7373076;19;20037;-44
2022/12/19 13:08:30;;;;;;;20.90;16.38;;;7.80;99.90;;;;;;7372628;19;20596;-45
2022/12/19 13:10:58;;;;;;;23.67;18.20;;;7.80;99.90;;;;;;7372538;19;20468;-45
2022/12/19 13:13:52;;;;;;;21.60;18.05;;;7.90;99.90;;;;;;7370790;19;20417;-44